sensor_id;sensor_type;location;lat;lon;timestamp;temperature;humidity
52849;DHT22;38714;53.180;5.812;2024-02-21T00:01:37;8.90;99.90
52849;DHT22;38714;53.180;5.812;2024-02-21T00:04:03;8.90;99.90
52849;DHT22;38714;53.180;5.812;2024-02-21T00:06:28;8.90;99.90
52849;DHT22;38714;53.180;5.812;2024-02-21T00:08:54;8.90;99.90
52849;DHT22;38714;53.180;5.812;2024-02-21T00:11:20;8.90;99.90
52849;DHT22;38714;53.180;5.812;2024-02-21T00:13:46;8.90;99.90
52849;DHT22;38714;53.180;5.812;2024-02-21T00:16:11;8.90;99.90
52849;DHT22;38714;53.180;5.812;2024-02-21T00:18:38;8.90;99.90
52849;DHT22;38714;53.180;5.812;2024-02-21T00:21:04;8.90;99.90
52849;DHT22;38714;53.180;5.812;2024-02-21T00:23:29;8.90;99.90
52849;DHT22;38714;53.180;5.812;2024-02-21T00:25:55;8.90;99.90
52849;DHT22;38714;53.180;5.812;2024-02-21T00:28:21;8.90;99.90
52849;DHT22;38714;53.180;5.812;2024-02-21T00:30:46;8.90;99.90
52849;DHT22;38714;53.180;5.812;2024-02-21T00:33:13;8.90;99.90
52849;DHT22;38714;53.180;5.812;2024-02-21T00:35:39;8.90;99.90
52849;DHT22;38714;53.180;5.812;2024-02-21T00:38:04;8.90;99.90
52849;DHT22;38714;53.180;5.812;2024-02-21T00:40:30;8.90;99.90
52849;DHT22;38714;53.180;5.812;2024-02-21T00:42:56;8.90;99.90
52849;DHT22;38714;53.180;5.812;2024-02-21T00:45:21;8.90;99.90
52849;DHT22;38714;53.180;5.812;2024-02-21T00:47:47;8.90;99.90
52849;DHT22;38714;53.180;5.812;2024-02-21T00:50:13;8.90;99.90
52849;DHT22;38714;53.180;5.812;2024-02-21T00:52:38;8.90;99.90
52849;DHT22;38714;53.180;5.812;2024-02-21T00:55:05;8.90;99.90
52849;DHT22;38714;53.180;5.812;2024-02-21T00:57:30;8.90;99.90
52849;DHT22;38714;53.180;5.812;2024-02-21T00:59:57;8.90;99.90
52849;DHT22;38714;53.180;5.812;2024-02-21T01:02:23;8.90;99.90
52849;DHT22;38714;53.180;5.812;2024-02-21T01:04:48;8.90;99.90
52849;DHT22;38714;53.180;5.812;2024-02-21T01:07:14;8.80;99.90
52849;DHT22;38714;53.180;5.812;2024-02-21T01:09:39;8.80;99.90
52849;DHT22;38714;53.180;5.812;2024-02-21T01:12:05;8.80;99.90
52849;DHT22;38714;53.180;5.812;2024-02-21T01:14:31;8.80;99.90
52849;DHT22;38714;53.180;5.812;2024-02-21T01:16:56;8.80;99.90
52849;DHT22;38714;53.180;5.812;2024-02-21T01:19:22;8.80;99.90
52849;DHT22;38714;53.180;5.812;2024-02-21T01:21:48;8.80;99.90
52849;DHT22;38714;53.180;5.812;2024-02-21T01:24:13;8.80;99.90
52849;DHT22;38714;53.180;5.812;2024-02-21T01:26:40;8.80;99.90
52849;DHT22;38714;53.180;5.812;2024-02-21T01:29:05;8.80;99.90
52849;DHT22;38714;53.180;5.812;2024-02-21T01:31:31;8.80;99.90
52849;DHT22;38714;53.180;5.812;2024-02-21T01:33:57;8.80;99.90
52849;DHT22;38714;53.180;5.812;2024-02-21T01:36:23;8.80;99.90
52849;DHT22;38714;53.180;5.812;2024-02-21T01:38:49;8.80;99.90
52849;DHT22;38714;53.180;5.812;2024-02-21T01:41:14;8.80;99.90
52849;DHT22;38714;53.180;5.812;2024-02-21T01:43:41;8.80;99.90
52849;DHT22;38714;53.180;5.812;2024-02-21T01:46:07;8.80;99.90
52849;DHT22;38714;53.180;5.812;2024-02-21T01:48:33;8.80;99.90
52849;DHT22;38714;53.180;5.812;2024-02-21T01:50:59;8.80;99.90
52849;DHT22;38714;53.180;5.812;2024-02-21T01:53:30;8.80;99.90
52849;DHT22;38714;53.180;5.812;2024-02-21T01:55:55;8.80;99.90
52849;DHT22;38714;53.180;5.812;2024-02-21T01:58:21;8.80;99.90
52849;DHT22;38714;53.180;5.812;2024-02-21T02:00:48;8.80;99.90
52849;DHT22;38714;53.180;5.812;2024-02-21T02:03:14;8.80;99.90
52849;DHT22;38714;53.180;5.812;2024-02-21T02:05:49;8.80;99.90
52849;DHT22;38714;53.180;5.812;2024-02-21T02:08:16;8.80;99.90
52849;DHT22;38714;53.180;5.812;2024-02-21T02:10:42;8.80;99.90
52849;DHT22;38714;53.180;5.812;2024-02-21T02:13:08;8.80;99.90
52849;DHT22;38714;53.180;5.812;2024-02-21T02:15:45;8.80;99.90
52849;DHT22;38714;53.180;5.812;2024-02-21T02:18:11;8.80;99.90
52849;DHT22;38714;53.180;5.812;2024-02-21T02:20:37;8.70;99.90
52849;DHT22;38714;53.180;5.812;2024-02-21T02:23:24;8.80;99.90
52849;DHT22;38714;53.180;5.812;2024-02-21T02:25:50;8.80;99.90
52849;DHT22;38714;53.180;5.812;2024-02-21T02:28:19;8.80;99.90
52849;DHT22;38714;53.180;5.812;2024-02-21T02:30:45;8.80;99.90
52849;DHT22;38714;53.180;5.812;2024-02-21T02:33:10;8.80;99.90
52849;DHT22;38714;53.180;5.812;2024-02-21T02:35:36;8.80;99.90
52849;DHT22;38714;53.180;5.812;2024-02-21T02:38:03;8.80;99.90
52849;DHT22;38714;53.180;5.812;2024-02-21T02:40:29;8.80;99.90
52849;DHT22;38714;53.180;5.812;2024-02-21T02:42:55;8.80;99.90
52849;DHT22;38714;53.180;5.812;2024-02-21T02:45:21;8.80;99.90
52849;DHT22;38714;53.180;5.812;2024-02-21T02:47:48;8.80;99.90
52849;DHT22;38714;53.180;5.812;2024-02-21T02:50:14;8.80;99.90
52849;DHT22;38714;53.180;5.812;2024-02-21T02:52:40;8.80;99.90
52849;DHT22;38714;53.180;5.812;2024-02-21T02:55:06;8.80;99.90
52849;DHT22;38714;53.180;5.812;2024-02-21T02:57:32;8.80;99.90
52849;DHT22;38714;53.180;5.812;2024-02-21T02:59:58;8.70;99.90
52849;DHT22;38714;53.180;5.812;2024-02-21T03:02:24;8.80;99.90
52849;DHT22;38714;53.180;5.812;2024-02-21T03:04:50;8.70;99.90
52849;DHT22;38714;53.180;5.812;2024-02-21T03:07:15;8.70;99.90
52849;DHT22;38714;53.180;5.812;2024-02-21T03:09:42;8.70;99.90
52849;DHT22;38714;53.180;5.812;2024-02-21T03:12:10;8.80;99.90
52849;DHT22;38714;53.180;5.812;2024-02-21T03:14:36;8.80;99.90
52849;DHT22;38714;53.180;5.812;2024-02-21T03:17:02;8.80;99.90
52849;DHT22;38714;53.180;5.812;2024-02-21T03:19:28;8.70;99.90
52849;DHT22;38714;53.180;5.812;2024-02-21T03:21:54;8.80;99.90
52849;DHT22;38714;53.180;5.812;2024-02-21T03:24:20;8.70;99.90
52849;DHT22;38714;53.180;5.812;2024-02-21T03:26:46;8.80;99.90
52849;DHT22;38714;53.180;5.812;2024-02-21T03:29:16;8.80;99.90
52849;DHT22;38714;53.180;5.812;2024-02-21T03:31:42;8.80;99.90
52849;DHT22;38714;53.180;5.812;2024-02-21T03:34:10;8.80;99.90
52849;DHT22;38714;53.180;5.812;2024-02-21T03:36:35;8.80;99.90
52849;DHT22;38714;53.180;5.812;2024-02-21T03:39:01;8.80;99.90
52849;DHT22;38714;53.180;5.812;2024-02-21T03:41:26;8.80;99.90
52849;DHT22;38714;53.180;5.812;2024-02-21T03:43:52;8.80;99.90
52849;DHT22;38714;53.180;5.812;2024-02-21T03:46:18;8.80;99.90
52849;DHT22;38714;53.180;5.812;2024-02-21T03:48:43;8.80;99.90
52849;DHT22;38714;53.180;5.812;2024-02-21T03:51:09;8.80;99.90
52849;DHT22;38714;53.180;5.812;2024-02-21T03:53:34;8.80;99.90
52849;DHT22;38714;53.180;5.812;2024-02-21T03:56:03;8.80;99.90
52849;DHT22;38714;53.180;5.812;2024-02-21T03:58:33;8.80;99.90
52849;DHT22;38714;53.180;5.812;2024-02-21T04:01:02;8.80;99.90
52849;DHT22;38714;53.180;5.812;2024-02-21T04:03:28;8.80;99.90
52849;DHT22;38714;53.180;5.812;2024-02-21T04:05:53;8.80;99.90
52849;DHT22;38714;53.180;5.812;2024-02-21T04:08:19;8.80;99.90
52849;DHT22;38714;53.180;5.812;2024-02-21T04:10:45;8.80;99.90
52849;DHT22;38714;53.180;5.812;2024-02-21T04:13:10;8.80;99.90
52849;DHT22;38714;53.180;5.812;2024-02-21T04:15:36;8.80;99.90
52849;DHT22;38714;53.180;5.812;2024-02-21T04:18:02;8.80;99.90
52849;DHT22;38714;53.180;5.812;2024-02-21T04:20:29;8.80;99.90
52849;DHT22;38714;53.180;5.812;2024-02-21T04:22:55;8.80;99.90
52849;DHT22;38714;53.180;5.812;2024-02-21T04:25:21;8.80;99.90
52849;DHT22;38714;53.180;5.812;2024-02-21T04:27:47;8.80;99.90
52849;DHT22;38714;53.180;5.812;2024-02-21T04:30:12;8.80;99.90
52849;DHT22;38714;53.180;5.812;2024-02-21T04:32:39;8.80;99.90
52849;DHT22;38714;53.180;5.812;2024-02-21T04:35:05;8.80;99.90
52849;DHT22;38714;53.180;5.812;2024-02-21T04:37:30;8.80;99.90
52849;DHT22;38714;53.180;5.812;2024-02-21T04:39:56;8.80;99.90
52849;DHT22;38714;53.180;5.812;2024-02-21T04:42:22;8.80;99.90
52849;DHT22;38714;53.180;5.812;2024-02-21T04:44:47;8.80;99.90
52849;DHT22;38714;53.180;5.812;2024-02-21T04:47:13;8.80;99.90
52849;DHT22;38714;53.180;5.812;2024-02-21T04:49:39;8.80;99.90
52849;DHT22;38714;53.180;5.812;2024-02-21T04:52:04;8.80;99.90
52849;DHT22;38714;53.180;5.812;2024-02-21T04:54:30;8.80;99.90
52849;DHT22;38714;53.180;5.812;2024-02-21T04:56:56;8.80;99.90
52849;DHT22;38714;53.180;5.812;2024-02-21T04:59:21;8.70;99.90
52849;DHT22;38714;53.180;5.812;2024-02-21T05:01:47;8.80;99.90
52849;DHT22;38714;53.180;5.812;2024-02-21T05:04:12;8.80;99.90
52849;DHT22;38714;53.180;5.812;2024-02-21T05:06:41;8.80;99.90
52849;DHT22;38714;53.180;5.812;2024-02-21T05:09:08;8.80;99.90
52849;DHT22;38714;53.180;5.812;2024-02-21T05:11:34;8.80;99.90
52849;DHT22;38714;53.180;5.812;2024-02-21T05:14:00;8.80;99.90
52849;DHT22;38714;53.180;5.812;2024-02-21T05:16:26;8.70;99.90
52849;DHT22;38714;53.180;5.812;2024-02-21T05:18:51;8.70;99.90
52849;DHT22;38714;53.180;5.812;2024-02-21T05:21:17;8.80;99.90
52849;DHT22;38714;53.180;5.812;2024-02-21T05:23:42;8.70;99.90
52849;DHT22;38714;53.180;5.812;2024-02-21T05:26:09;8.70;99.90
52849;DHT22;38714;53.180;5.812;2024-02-21T05:28:34;8.70;99.90
52849;DHT22;38714;53.180;5.812;2024-02-21T05:31:00;8.70;99.90
52849;DHT22;38714;53.180;5.812;2024-02-21T05:33:26;8.70;99.90
52849;DHT22;38714;53.180;5.812;2024-02-21T05:35:52;8.70;99.90
52849;DHT22;38714;53.180;5.812;2024-02-21T05:38:17;8.70;99.90
52849;DHT22;38714;53.180;5.812;2024-02-21T05:40:45;8.70;99.90
52849;DHT22;38714;53.180;5.812;2024-02-21T05:43:10;8.70;99.90
52849;DHT22;38714;53.180;5.812;2024-02-21T05:45:36;8.70;99.90
52849;DHT22;38714;53.180;5.812;2024-02-21T05:48:02;8.70;99.90
52849;DHT22;38714;53.180;5.812;2024-02-21T05:50:28;8.70;99.90
52849;DHT22;38714;53.180;5.812;2024-02-21T05:52:56;8.70;99.90
52849;DHT22;38714;53.180;5.812;2024-02-21T05:55:22;8.70;99.90
52849;DHT22;38714;53.180;5.812;2024-02-21T05:57:48;8.70;99.90
52849;DHT22;38714;53.180;5.812;2024-02-21T06:00:15;8.70;99.90
52849;DHT22;38714;53.180;5.812;2024-02-21T06:02:41;8.70;99.90
52849;DHT22;38714;53.180;5.812;2024-02-21T06:05:07;8.70;99.90
52849;DHT22;38714;53.180;5.812;2024-02-21T06:07:33;8.70;99.90
52849;DHT22;38714;53.180;5.812;2024-02-21T06:10:01;8.60;99.90
52849;DHT22;38714;53.180;5.812;2024-02-21T06:12:27;8.70;99.90
52849;DHT22;38714;53.180;5.812;2024-02-21T06:14:52;8.70;99.90
52849;DHT22;38714;53.180;5.812;2024-02-21T06:17:18;8.70;99.90
52849;DHT22;38714;53.180;5.812;2024-02-21T06:19:44;8.70;99.90
52849;DHT22;38714;53.180;5.812;2024-02-21T06:22:10;8.70;99.90
52849;DHT22;38714;53.180;5.812;2024-02-21T06:24:36;8.70;99.90
52849;DHT22;38714;53.180;5.812;2024-02-21T06:27:07;8.70;99.90
52849;DHT22;38714;53.180;5.812;2024-02-21T06:29:33;8.70;99.90
52849;DHT22;38714;53.180;5.812;2024-02-21T06:31:59;8.60;99.90
52849;DHT22;38714;53.180;5.812;2024-02-21T06:34:25;8.60;99.90
52849;DHT22;38714;53.180;5.812;2024-02-21T06:36:51;8.70;99.90
52849;DHT22;38714;53.180;5.812;2024-02-21T06:39:16;8.70;99.90
52849;DHT22;38714;53.180;5.812;2024-02-21T06:41:42;8.60;99.90
52849;DHT22;38714;53.180;5.812;2024-02-21T06:44:08;8.70;99.90
52849;DHT22;38714;53.180;5.812;2024-02-21T06:46:34;8.70;99.90
52849;DHT22;38714;53.180;5.812;2024-02-21T06:49:00;8.70;99.90
52849;DHT22;38714;53.180;5.812;2024-02-21T06:51:26;8.70;99.90
52849;DHT22;38714;53.180;5.812;2024-02-21T06:53:53;8.60;99.90
52849;DHT22;38714;53.180;5.812;2024-02-21T06:56:18;8.70;99.90
52849;DHT22;38714;53.180;5.812;2024-02-21T06:58:44;8.70;99.90
52849;DHT22;38714;53.180;5.812;2024-02-21T07:01:10;8.70;99.90
52849;DHT22;38714;53.180;5.812;2024-02-21T07:03:36;8.70;99.90
52849;DHT22;38714;53.180;5.812;2024-02-21T07:06:01;8.70;99.90
52849;DHT22;38714;53.180;5.812;2024-02-21T07:08:27;8.70;99.90
52849;DHT22;38714;53.180;5.812;2024-02-21T07:10:52;8.70;99.90
52849;DHT22;38714;53.180;5.812;2024-02-21T07:13:18;8.70;99.90
52849;DHT22;38714;53.180;5.812;2024-02-21T07:15:43;8.70;99.90
52849;DHT22;38714;53.180;5.812;2024-02-21T07:18:09;8.70;99.90
52849;DHT22;38714;53.180;5.812;2024-02-21T07:20:35;8.70;99.90
52849;DHT22;38714;53.180;5.812;2024-02-21T07:23:03;8.70;99.90
52849;DHT22;38714;53.180;5.812;2024-02-21T07:25:29;8.70;99.90
52849;DHT22;38714;53.180;5.812;2024-02-21T07:27:55;8.70;99.90
52849;DHT22;38714;53.180;5.812;2024-02-21T07:30:20;8.70;99.90
52849;DHT22;38714;53.180;5.812;2024-02-21T07:32:49;8.70;99.90
52849;DHT22;38714;53.180;5.812;2024-02-21T07:35:15;8.80;99.90
52849;DHT22;38714;53.180;5.812;2024-02-21T07:37:41;8.70;99.90
52849;DHT22;38714;53.180;5.812;2024-02-21T07:40:12;8.80;99.90
52849;DHT22;38714;53.180;5.812;2024-02-21T07:42:37;8.80;99.90
52849;DHT22;38714;53.180;5.812;2024-02-21T07:45:03;8.80;99.90
52849;DHT22;38714;53.180;5.812;2024-02-21T07:47:29;8.80;99.90
52849;DHT22;38714;53.180;5.812;2024-02-21T07:49:54;8.80;99.90
52849;DHT22;38714;53.180;5.812;2024-02-21T07:52:20;8.80;99.90
52849;DHT22;38714;53.180;5.812;2024-02-21T07:54:45;8.80;99.90
52849;DHT22;38714;53.180;5.812;2024-02-21T07:57:11;8.80;99.90
52849;DHT22;38714;53.180;5.812;2024-02-21T07:59:37;8.80;99.90
52849;DHT22;38714;53.180;5.812;2024-02-21T08:02:02;8.80;99.90
52849;DHT22;38714;53.180;5.812;2024-02-21T08:04:32;8.80;99.90
52849;DHT22;38714;53.180;5.812;2024-02-21T08:06:57;8.80;99.90
52849;DHT22;38714;53.180;5.812;2024-02-21T08:09:27;8.80;99.90
52849;DHT22;38714;53.180;5.812;2024-02-21T08:11:53;8.80;99.90
52849;DHT22;38714;53.180;5.812;2024-02-21T08:14:19;8.80;99.90
52849;DHT22;38714;53.180;5.812;2024-02-21T08:16:45;8.80;99.90
52849;DHT22;38714;53.180;5.812;2024-02-21T08:19:10;8.80;99.90
52849;DHT22;38714;53.180;5.812;2024-02-21T08:21:36;8.80;99.90
52849;DHT22;38714;53.180;5.812;2024-02-21T08:24:02;8.80;99.90
52849;DHT22;38714;53.180;5.812;2024-02-21T08:26:27;8.80;99.90
52849;DHT22;38714;53.180;5.812;2024-02-21T08:28:58;8.80;99.90
52849;DHT22;38714;53.180;5.812;2024-02-21T08:31:25;8.80;99.90
52849;DHT22;38714;53.180;5.812;2024-02-21T08:33:57;8.80;99.90
52849;DHT22;38714;53.180;5.812;2024-02-21T08:36:28;8.80;99.90
52849;DHT22;38714;53.180;5.812;2024-02-21T08:38:54;8.80;99.90
52849;DHT22;38714;53.180;5.812;2024-02-21T08:41:20;8.90;99.90
52849;DHT22;38714;53.180;5.812;2024-02-21T08:43:48;8.90;99.90
52849;DHT22;38714;53.180;5.812;2024-02-21T08:46:14;8.90;99.90
52849;DHT22;38714;53.180;5.812;2024-02-21T08:48:40;8.90;99.90
52849;DHT22;38714;53.180;5.812;2024-02-21T08:51:06;8.90;99.90
52849;DHT22;38714;53.180;5.812;2024-02-21T08:53:31;8.90;99.90
52849;DHT22;38714;53.180;5.812;2024-02-21T08:55:57;8.90;99.90
52849;DHT22;38714;53.180;5.812;2024-02-21T08:58:22;8.90;99.90
52849;DHT22;38714;53.180;5.812;2024-02-21T09:00:49;9.00;99.90
52849;DHT22;38714;53.180;5.812;2024-02-21T09:03:16;9.00;99.90
52849;DHT22;38714;53.180;5.812;2024-02-21T09:05:43;9.00;99.90
52849;DHT22;38714;53.180;5.812;2024-02-21T09:08:08;9.00;99.90
52849;DHT22;38714;53.180;5.812;2024-02-21T09:10:34;9.00;99.90
52849;DHT22;38714;53.180;5.812;2024-02-21T09:13:00;9.00;99.90
52849;DHT22;38714;53.180;5.812;2024-02-21T09:15:25;9.00;99.90
52849;DHT22;38714;53.180;5.812;2024-02-21T09:17:52;9.00;99.90
52849;DHT22;38714;53.180;5.812;2024-02-21T09:20:17;9.10;99.90
52849;DHT22;38714;53.180;5.812;2024-02-21T09:22:43;9.00;99.90
52849;DHT22;38714;53.180;5.812;2024-02-21T09:25:09;9.10;99.90
52849;DHT22;38714;53.180;5.812;2024-02-21T09:27:37;9.10;99.90
52849;DHT22;38714;53.180;5.812;2024-02-21T09:30:03;9.00;99.90
52849;DHT22;38714;53.180;5.812;2024-02-21T09:32:30;9.10;99.90
52849;DHT22;38714;53.180;5.812;2024-02-21T09:34:56;9.10;99.90
52849;DHT22;38714;53.180;5.812;2024-02-21T09:37:21;9.10;99.90
52849;DHT22;38714;53.180;5.812;2024-02-21T09:39:47;9.10;99.90
52849;DHT22;38714;53.180;5.812;2024-02-21T09:42:14;9.10;99.90
52849;DHT22;38714;53.180;5.812;2024-02-21T09:44:44;9.10;99.90
52849;DHT22;38714;53.180;5.812;2024-02-21T09:47:19;9.20;99.90
52849;DHT22;38714;53.180;5.812;2024-02-21T09:49:47;9.20;99.90
52849;DHT22;38714;53.180;5.812;2024-02-21T09:52:14;9.20;99.90
52849;DHT22;38714;53.180;5.812;2024-02-21T09:54:41;9.30;99.90
52849;DHT22;38714;53.180;5.812;2024-02-21T09:57:10;9.20;99.90
52849;DHT22;38714;53.180;5.812;2024-02-21T09:59:36;9.30;99.90
52849;DHT22;38714;53.180;5.812;2024-02-21T10:02:02;9.30;99.90
52849;DHT22;38714;53.180;5.812;2024-02-21T10:04:28;9.30;99.90
52849;DHT22;38714;53.180;5.812;2024-02-21T10:06:54;9.30;99.90
52849;DHT22;38714;53.180;5.812;2024-02-21T10:09:22;9.30;99.90
52849;DHT22;38714;53.180;5.812;2024-02-21T10:11:53;9.30;99.90
52849;DHT22;38714;53.180;5.812;2024-02-21T10:14:19;9.30;99.90
52849;DHT22;38714;53.180;5.812;2024-02-21T10:16:48;9.30;99.90
52849;DHT22;38714;53.180;5.812;2024-02-21T10:19:21;9.40;99.90
52849;DHT22;38714;53.180;5.812;2024-02-21T10:22:03;9.40;99.90
52849;DHT22;38714;53.180;5.812;2024-02-21T10:24:29;9.40;99.90
52849;DHT22;38714;53.180;5.812;2024-02-21T10:27:06;9.40;99.90
52849;DHT22;38714;53.180;5.812;2024-02-21T10:29:34;9.40;99.90
52849;DHT22;38714;53.180;5.812;2024-02-21T10:32:11;9.40;99.90
52849;DHT22;38714;53.180;5.812;2024-02-21T10:34:38;9.50;99.90
52849;DHT22;38714;53.180;5.812;2024-02-21T10:37:09;9.50;99.90
52849;DHT22;38714;53.180;5.812;2024-02-21T10:39:39;9.50;99.90
52849;DHT22;38714;53.180;5.812;2024-02-21T10:42:05;9.50;99.90
52849;DHT22;38714;53.180;5.812;2024-02-21T10:44:33;9.50;99.90
52849;DHT22;38714;53.180;5.812;2024-02-21T10:46:59;9.50;99.90
52849;DHT22;38714;53.180;5.812;2024-02-21T10:49:26;9.50;99.90
52849;DHT22;38714;53.180;5.812;2024-02-21T10:54:47;9.50;99.90
52849;DHT22;38714;53.180;5.812;2024-02-21T10:57:13;9.50;99.90
52849;DHT22;38714;53.180;5.812;2024-02-21T10:59:44;9.50;99.90
52849;DHT22;38714;53.180;5.812;2024-02-21T11:02:10;9.50;99.90
52849;DHT22;38714;53.180;5.812;2024-02-21T11:04:36;9.50;99.90
52849;DHT22;38714;53.180;5.812;2024-02-21T11:07:05;9.50;99.90
52849;DHT22;38714;53.180;5.812;2024-02-21T11:09:32;9.50;99.90
52849;DHT22;38714;53.180;5.812;2024-02-21T11:11:58;9.40;99.90
52849;DHT22;38714;53.180;5.812;2024-02-21T11:14:27;9.50;99.90
52849;DHT22;38714;53.180;5.812;2024-02-21T11:16:52;9.40;99.90
52849;DHT22;38714;53.180;5.812;2024-02-21T11:19:22;9.50;99.90
52849;DHT22;38714;53.180;5.812;2024-02-21T11:21:48;9.40;99.90
52849;DHT22;38714;53.180;5.812;2024-02-21T11:24:14;9.50;99.90
52849;DHT22;38714;53.180;5.812;2024-02-21T11:26:50;9.50;99.90
52849;DHT22;38714;53.180;5.812;2024-02-21T11:29:23;9.50;99.90
52849;DHT22;38714;53.180;5.812;2024-02-21T11:31:48;9.50;99.90
52849;DHT22;38714;53.180;5.812;2024-02-21T11:34:17;9.50;99.90
52849;DHT22;38714;53.180;5.812;2024-02-21T11:36:51;9.50;99.90
52849;DHT22;38714;53.180;5.812;2024-02-21T11:39:25;9.50;99.90
52849;DHT22;38714;53.180;5.812;2024-02-21T11:42:04;9.50;99.90
52849;DHT22;38714;53.180;5.812;2024-02-21T11:44:31;9.50;99.90
52849;DHT22;38714;53.180;5.812;2024-02-21T11:46:57;9.50;99.90
52849;DHT22;38714;53.180;5.812;2024-02-21T11:49:29;9.60;99.90
52849;DHT22;38714;53.180;5.812;2024-02-21T11:52:02;9.60;99.90
52849;DHT22;38714;53.180;5.812;2024-02-21T11:54:30;9.50;99.90
52849;DHT22;38714;53.180;5.812;2024-02-21T11:56:55;9.50;99.90
52849;DHT22;38714;53.180;5.812;2024-02-21T11:59:21;9.60;99.90
52849;DHT22;38714;53.180;5.812;2024-02-21T12:01:48;9.60;99.90
52849;DHT22;38714;53.180;5.812;2024-02-21T12:04:14;9.60;99.90
52849;DHT22;38714;53.180;5.812;2024-02-21T12:06:43;9.60;99.90
52849;DHT22;38714;53.180;5.812;2024-02-21T12:09:08;9.60;99.90
52849;DHT22;38714;53.180;5.812;2024-02-21T12:11:34;9.60;99.90
52849;DHT22;38714;53.180;5.812;2024-02-21T12:14:01;9.60;99.90
52849;DHT22;38714;53.180;5.812;2024-02-21T12:16:29;9.60;99.90
52849;DHT22;38714;53.180;5.812;2024-02-21T12:18:56;9.60;99.90
52849;DHT22;38714;53.180;5.812;2024-02-21T12:21:32;9.70;99.90
52849;DHT22;38714;53.180;5.812;2024-02-21T12:24:00;9.70;99.90
52849;DHT22;38714;53.180;5.812;2024-02-21T12:26:26;9.70;99.90
52849;DHT22;38714;53.180;5.812;2024-02-21T12:28:53;9.70;99.90
52849;DHT22;38714;53.180;5.812;2024-02-21T12:31:19;9.70;99.90
52849;DHT22;38714;53.180;5.812;2024-02-21T12:33:44;9.70;99.90
52849;DHT22;38714;53.180;5.812;2024-02-21T12:36:10;9.70;99.90
52849;DHT22;38714;53.180;5.812;2024-02-21T12:38:36;9.70;99.90
52849;DHT22;38714;53.180;5.812;2024-02-21T12:41:02;9.70;99.90
52849;DHT22;38714;53.180;5.812;2024-02-21T12:43:28;9.70;99.90
52849;DHT22;38714;53.180;5.812;2024-02-21T12:45:54;9.70;99.90
52849;DHT22;38714;53.180;5.812;2024-02-21T12:48:20;9.70;99.90
52849;DHT22;38714;53.180;5.812;2024-02-21T12:50:49;9.70;99.90
52849;DHT22;38714;53.180;5.812;2024-02-21T12:53:21;9.70;99.90
52849;DHT22;38714;53.180;5.812;2024-02-21T12:55:48;9.70;99.90
52849;DHT22;38714;53.180;5.812;2024-02-21T12:58:14;9.70;99.90
52849;DHT22;38714;53.180;5.812;2024-02-21T13:00:40;9.70;99.90
52849;DHT22;38714;53.180;5.812;2024-02-21T13:03:06;9.80;99.90
52849;DHT22;38714;53.180;5.812;2024-02-21T13:05:31;9.70;99.90
52849;DHT22;38714;53.180;5.812;2024-02-21T13:08:00;9.80;99.90
52849;DHT22;38714;53.180;5.812;2024-02-21T13:10:26;9.80;99.90
52849;DHT22;38714;53.180;5.812;2024-02-21T13:12:51;9.80;99.90
52849;DHT22;38714;53.180;5.812;2024-02-21T13:15:17;9.80;99.90
52849;DHT22;38714;53.180;5.812;2024-02-21T13:17:46;9.90;99.90
52849;DHT22;38714;53.180;5.812;2024-02-21T13:20:12;9.90;99.90
52849;DHT22;38714;53.180;5.812;2024-02-21T13:22:38;9.90;99.90
52849;DHT22;38714;53.180;5.812;2024-02-21T13:25:05;9.90;99.90
52849;DHT22;38714;53.180;5.812;2024-02-21T13:27:33;9.90;99.90
52849;DHT22;38714;53.180;5.812;2024-02-21T13:29:59;9.90;99.90
52849;DHT22;38714;53.180;5.812;2024-02-21T13:32:25;9.80;99.90
52849;DHT22;38714;53.180;5.812;2024-02-21T13:34:51;9.80;99.90
52849;DHT22;38714;53.180;5.812;2024-02-21T13:37:18;9.80;99.90
52849;DHT22;38714;53.180;5.812;2024-02-21T13:39:43;9.80;99.90
52849;DHT22;38714;53.180;5.812;2024-02-21T13:42:09;9.80;99.90
52849;DHT22;38714;53.180;5.812;2024-02-21T13:44:35;9.80;99.90
52849;DHT22;38714;53.180;5.812;2024-02-21T13:47:02;9.80;99.90
52849;DHT22;38714;53.180;5.812;2024-02-21T13:49:27;9.80;99.90
52849;DHT22;38714;53.180;5.812;2024-02-21T13:51:54;9.80;99.90
52849;DHT22;38714;53.180;5.812;2024-02-21T13:54:19;9.70;99.90
52849;DHT22;38714;53.180;5.812;2024-02-21T13:56:46;9.70;99.90
52849;DHT22;38714;53.180;5.812;2024-02-21T13:59:12;9.80;99.90
52849;DHT22;38714;53.180;5.812;2024-02-21T14:01:41;9.80;99.90
52849;DHT22;38714;53.180;5.812;2024-02-21T14:04:08;9.80;99.90
52849;DHT22;38714;53.180;5.812;2024-02-21T14:06:33;9.70;99.90
52849;DHT22;38714;53.180;5.812;2024-02-21T14:08:59;9.70;99.90
52849;DHT22;38714;53.180;5.812;2024-02-21T14:11:25;9.70;99.90
52849;DHT22;38714;53.180;5.812;2024-02-21T14:13:52;9.70;99.90
52849;DHT22;38714;53.180;5.812;2024-02-21T14:16:18;9.70;99.90
52849;DHT22;38714;53.180;5.812;2024-02-21T14:18:43;9.70;99.90
52849;DHT22;38714;53.180;5.812;2024-02-21T14:21:10;9.70;99.90
52849;DHT22;38714;53.180;5.812;2024-02-21T14:23:41;9.70;99.90
52849;DHT22;38714;53.180;5.812;2024-02-21T14:26:06;9.60;99.90
52849;DHT22;38714;53.180;5.812;2024-02-21T14:28:32;9.60;99.90
52849;DHT22;38714;53.180;5.812;2024-02-21T14:31:01;9.60;99.90
52849;DHT22;38714;53.180;5.812;2024-02-21T14:33:28;9.60;99.90
52849;DHT22;38714;53.180;5.812;2024-02-21T14:35:55;9.60;99.90
52849;DHT22;38714;53.180;5.812;2024-02-21T14:38:20;9.50;99.90
52849;DHT22;38714;53.180;5.812;2024-02-21T14:40:46;9.50;99.90
52849;DHT22;38714;53.180;5.812;2024-02-21T14:43:12;9.60;99.90
52849;DHT22;38714;53.180;5.812;2024-02-21T14:45:37;9.60;99.90
52849;DHT22;38714;53.180;5.812;2024-02-21T14:48:06;9.60;99.90
52849;DHT22;38714;53.180;5.812;2024-02-21T14:50:32;9.60;99.90
52849;DHT22;38714;53.180;5.812;2024-02-21T14:52:57;9.50;99.90
52849;DHT22;38714;53.180;5.812;2024-02-21T14:55:23;9.60;99.90
52849;DHT22;38714;53.180;5.812;2024-02-21T14:57:49;9.50;99.90
52849;DHT22;38714;53.180;5.812;2024-02-21T15:00:15;9.50;99.90
52849;DHT22;38714;53.180;5.812;2024-02-21T15:02:41;9.50;99.90
52849;DHT22;38714;53.180;5.812;2024-02-21T15:05:08;9.50;99.90
52849;DHT22;38714;53.180;5.812;2024-02-21T15:07:34;9.50;99.90
52849;DHT22;38714;53.180;5.812;2024-02-21T15:09:59;9.50;99.90
52849;DHT22;38714;53.180;5.812;2024-02-21T15:12:25;9.50;99.90
52849;DHT22;38714;53.180;5.812;2024-02-21T15:14:51;9.50;99.90
52849;DHT22;38714;53.180;5.812;2024-02-21T15:17:17;9.50;99.90
52849;DHT22;38714;53.180;5.812;2024-02-21T15:19:43;9.50;99.90
52849;DHT22;38714;53.180;5.812;2024-02-21T15:22:13;9.50;99.90
52849;DHT22;38714;53.180;5.812;2024-02-21T15:24:39;9.50;99.90
52849;DHT22;38714;53.180;5.812;2024-02-21T15:27:05;9.50;99.90
52849;DHT22;38714;53.180;5.812;2024-02-21T15:29:31;9.50;99.90
52849;DHT22;38714;53.180;5.812;2024-02-21T15:31:57;9.50;99.90
52849;DHT22;38714;53.180;5.812;2024-02-21T15:34:22;9.50;99.90
52849;DHT22;38714;53.180;5.812;2024-02-21T15:36:48;9.50;99.90
52849;DHT22;38714;53.180;5.812;2024-02-21T15:39:13;9.40;99.90
52849;DHT22;38714;53.180;5.812;2024-02-21T15:41:39;9.50;99.90
52849;DHT22;38714;53.180;5.812;2024-02-21T15:44:05;9.40;99.90